Time;durP1;ratioP1;P1;durP2;ratioP2;P2;SDS_P1;SDS_P2;PMS_P1;PMS_P2;Temp;Humidity;BMP_temperature;BMP_pressure;BME280_temperature;BME280_humidity;BME280_pressure;Samples;Min_cycle;Max_cycle;Signal;HPM_P1;HPM_P2
2023/12/23 00:02:12;;;;;;;3.83;1.87;;;;;;;;;;5010925;28;20487;-54
2023/12/23 00:04:38;;;;;;;7.03;1.87;;;;;;;;;;5013539;28;20887;-54
2023/12/23 00:07:04;;;;;;;6.00;2.13;;;;;;;;;;5013240;28;20963;-54
2023/12/23 00:09:30;;;;;;;6.23;1.90;;;;;;;;;;5013089;28;20202;-54
2023/12/23 00:15:17;;;;;;;7.03;2.10;;;;;;;;;;4934227;28;20207;-54
2023/12/23 00:17:55;;;;;;;9.20;2.00;;;;;;;;;;4970748;28;20983;-55
2023/12/23 00:20:38;;;;;;;10.80;2.73;;;;;;;;;;4971329;28;20437;-55
2023/12/23 00:23:13;;;;;;;6.27;1.93;;;;;;;;;;4971340;28;20537;-54
2023/12/23 00:28:42;;;;;;;5.80;1.60;;;;;;;;;;4962650;28;20536;-54
2023/12/23 00:31:14;;;;;;;3.30;1.70;;;;;;;;;;4954681;28;20524;-54
2023/12/23 00:33:47;;;;;;;6.33;2.10;;;;;;;;;;4990328;28;20496;-56
2023/12/23 00:36:18;;;;;;;3.00;1.60;;;;;;;;;;4992189;28;20983;-55
2023/12/23 00:39:23;;;;;;;4.37;1.60;;;;;;;;;;4989039;28;20468;-54
2023/12/23 00:41:49;;;;;;;3.47;1.30;;;;;;;;;;4990945;28;20524;-55
2023/12/23 00:47:27;;;;;;;3.43;1.57;;;;;;;;;;4974377;28;20450;-55
2023/12/23 00:50:16;;;;;;;5.77;1.50;;;;;;;;;;4985660;28;20557;-55
2023/12/23 00:52:44;;;;;;;3.30;1.70;;;;;;;;;;4963612;28;20991;-54
2023/12/23 00:55:29;;;;;;;7.20;2.10;;;;;;;;;;4987037;28;20448;-55
2023/12/23 00:58:04;;;;;;;7.53;2.23;;;;;;;;;;4983012;28;20541;-58
2023/12/23 01:00:40;;;;;;;6.83;2.37;;;;;;;;;;4985549;28;20576;-55
2023/12/23 01:03:06;;;;;;;6.87;2.23;;;;;;;;;;4990157;28;20480;-55
2023/12/23 01:05:36;;;;;;;11.13;2.40;;;;;;;;;;4986361;28;20444;-56
2023/12/23 01:08:14;;;;;;;5.47;2.00;;;;;;;;;;4988881;28;20433;-59
2023/12/23 01:11:02;;;;;;;12.00;2.57;;;;;;;;;;4989685;28;20449;-55
2023/12/23 01:13:31;;;;;;;6.53;2.20;;;;;;;;;;4985203;28;20429;-55
2023/12/23 01:16:34;;;;;;;6.53;2.43;;;;;;;;;;4988530;28;21184;-55
2023/12/23 01:19:03;;;;;;;5.63;1.90;;;;;;;;;;4901682;29;20839;-55
2023/12/23 01:25:29;;;;;;;7.57;2.60;;;;;;;;;;4966069;28;20501;-55
2023/12/23 01:28:00;;;;;;;7.50;2.30;;;;;;;;;;4952029;28;20515;-56
2023/12/23 01:30:31;;;;;;;5.97;2.13;;;;;;;;;;4983102;28;20481;-55
2023/12/23 01:32:57;;;;;;;7.40;2.60;;;;;;;;;;4985012;28;20696;-55
2023/12/23 01:36:05;;;;;;;7.93;2.20;;;;;;;;;;4984722;28;20520;-56
2023/12/23 01:41:42;;;;;;;8.07;2.17;;;;;;;;;;4979462;28;20584;-55
2023/12/23 01:44:23;;;;;;;8.40;2.90;;;;;;;;;;4983095;28;20442;-54
2023/12/23 01:47:03;;;;;;;10.50;2.67;;;;;;;;;;4986955;28;20445;-55
2023/12/23 01:52:34;;;;;;;6.77;2.07;;;;;;;;;;4965955;28;20450;-55
2023/12/23 01:55:21;;;;;;;9.50;2.50;;;;;;;;;;4988264;28;20820;-55
2023/12/23 01:57:52;;;;;;;8.67;2.03;;;;;;;;;;4984750;28;20569;-55
2023/12/23 02:00:29;;;;;;;6.57;2.20;;;;;;;;;;4987912;28;20935;-54
2023/12/23 02:02:57;;;;;;;5.53;2.17;;;;;;;;;;4984795;28;20485;-55
2023/12/23 02:05:23;;;;;;;7.03;2.33;;;;;;;;;;4991998;28;20447;-55
2023/12/23 02:07:57;;;;;;;9.20;2.40;;;;;;;;;;4987013;28;20779;-55
2023/12/23 02:13:30;;;;;;;4.30;2.43;;;;;;;;;;4963994;28;20461;-55
2023/12/23 02:16:15;;;;;;;7.40;1.93;;;;;;;;;;4986031;28;20457;-55
2023/12/23 02:18:45;;;;;;;11.80;2.90;;;;;;;;;;4984375;28;20437;-55
2023/12/23 02:21:26;;;;;;;11.57;2.63;;;;;;;;;;4986334;28;20816;-55
2023/12/23 02:23:59;;;;;;;13.03;2.80;;;;;;;;;;4984419;28;20479;-55
2023/12/23 02:29:31;;;;;;;9.93;2.87;;;;;;;;;;4965070;28;20514;-55
2023/12/23 02:35:17;;;;;;;6.97;2.27;;;;;;;;;;4987932;28;20432;-55
2023/12/23 02:37:49;;;;;;;10.30;2.77;;;;;;;;;;4987988;28;20469;-55
2023/12/23 02:43:59;;;;;;;9.30;2.57;;;;;;;;;;4886289;29;20748;-55
2023/12/23 02:56:57;;;;;;;6.50;2.57;;;;;;;;;;4758553;30;20531;-54
2023/12/23 03:03:07;;;;;;;10.07;2.90;;;;;;;;;;4779047;29;20331;-54
2023/12/23 03:06:06;;;;;;;14.30;3.33;;;;;;;;;;4794871;29;20469;-54
2023/12/23 03:08:46;;;;;;;9.40;3.07;;;;;;;;;;4724473;30;21147;-54
2023/12/23 03:11:37;;;;;;;15.27;2.43;;;;;;;;;;4824223;29;20953;-54
2023/12/23 03:14:39;;;;;;;14.03;2.43;;;;;;;;;;4932846;28;20447;-53
2023/12/23 03:17:56;;;;;;;9.93;2.90;;;;;;;;;;4906958;28;20450;-55
2023/12/23 03:23:47;;;;;;;13.17;2.80;;;;;;;;;;4957333;28;20500;-54
2023/12/23 03:26:32;;;;;;;8.97;2.63;;;;;;;;;;4981909;28;20438;-54
2023/12/23 03:29:05;;;;;;;12.63;2.97;;;;;;;;;;4985036;28;20556;-54
2023/12/23 03:31:41;;;;;;;9.93;2.53;;;;;;;;;;4982157;28;20524;-54
2023/12/23 03:34:28;;;;;;;8.17;3.10;;;;;;;;;;4983705;28;20441;-54
2023/12/23 03:37:09;;;;;;;8.80;2.30;;;;;;;;;;4981045;28;20450;-54
2023/12/23 03:40:17;;;;;;;9.67;2.83;;;;;;;;;;4984639;28;20474;-54
2023/12/23 03:43:11;;;;;;;5.83;2.20;;;;;;;;;;4935216;28;20493;-54
2023/12/23 03:46:01;;;;;;;8.33;2.50;;;;;;;;;;4969731;28;20438;-54
2023/12/23 03:49:06;;;;;;;11.90;3.17;;;;;;;;;;4934315;28;20455;-54
2023/12/23 03:51:48;;;;;;;9.03;2.80;;;;;;;;;;4943792;28;20512;-55
2023/12/23 03:57:40;;;;;;;14.57;2.70;;;;;;;;;;4886251;29;20558;-54
2023/12/23 04:00:24;;;;;;;10.40;3.53;;;;;;;;;;4904053;29;20950;-54
2023/12/23 04:03:26;;;;;;;7.37;2.83;;;;;;;;;;4968992;28;20547;-54
2023/12/23 04:05:56;;;;;;;11.30;2.57;;;;;;;;;;4982006;28;20453;-55
2023/12/23 04:08:39;;;;;;;11.60;2.50;;;;;;;;;;4982792;28;20484;-54
2023/12/23 04:11:19;;;;;;;11.93;3.10;;;;;;;;;;4986147;28;20445;-55
2023/12/23 04:14:32;;;;;;;9.60;2.77;;;;;;;;;;4983871;28;20492;-54
2023/12/23 04:17:14;;;;;;;9.60;2.47;;;;;;;;;;4902695;29;20849;-54
2023/12/23 04:20:13;;;;;;;8.50;2.60;;;;;;;;;;4954926;28;21060;-54
2023/12/23 04:22:40;;;;;;;7.70;2.30;;;;;;;;;;4903194;29;20489;-54
2023/12/23 04:31:11;;;;;;;8.53;2.70;;;;;;;;;;4879667;29;20967;-54
2023/12/23 04:36:40;;;;;;;10.37;2.40;;;;;;;;;;4929756;28;20463;-54
2023/12/23 04:39:55;;;;;;;;;;;;;;;;;;;;;
2023/12/23 04:42:16;;;;;;;7.57;2.20;;;;;;;;;;4980550;28;20332;-54
2023/12/23 04:44:52;;;;;;;11.13;2.73;;;;;;;;;;4982464;28;20947;-54
2023/12/23 04:47:54;;;;;;;10.80;2.83;;;;;;;;;;4982048;28;20213;-54
2023/12/23 04:50:33;;;;;;;7.53;2.87;;;;;;;;;;4981779;28;20202;-54
2023/12/23 04:53:09;;;;;;;10.63;2.50;;;;;;;;;;4985468;28;20536;-54
2023/12/23 04:55:39;;;;;;;8.03;2.30;;;;;;;;;;4981072;28;20829;-54
2023/12/23 04:58:22;;;;;;;8.00;2.33;;;;;;;;;;4982305;28;20228;-54
2023/12/23 05:04:13;;;;;;;9.23;2.63;;;;;;;;;;4972384;28;20486;-54
2023/12/23 05:06:55;;;;;;;10.63;2.63;;;;;;;;;;4960785;28;20501;-55
2023/12/23 05:09:34;;;;;;;6.57;2.43;;;;;;;;;;4956551;28;20573;-54
2023/12/23 05:12:24;;;;;;;7.47;2.70;;;;;;;;;;4976815;28;20448;-54
2023/12/23 05:18:28;;;;;;;11.80;2.43;;;;;;;;;;4961326;28;20209;-54
2023/12/23 05:22:15;;;;;;;4.27;1.97;;;;;;;;;;4976989;28;20201;-54
2023/12/23 05:24:16;;;;;;;9.70;2.50;;;;;;;;;;4960347;28;20449;-54
2023/12/23 05:27:13;;;;;;;12.20;3.13;;;;;;;;;;4981619;28;20198;-54
2023/12/23 05:29:56;;;;;;;5.63;2.30;;;;;;;;;;4980798;28;20917;-54
2023/12/23 05:32:39;;;;;;;8.87;2.13;;;;;;;;;;4981493;28;20441;-54
2023/12/23 05:35:06;;;;;;;6.83;2.50;;;;;;;;;;4980109;28;20433;-53
2023/12/23 05:37:39;;;;;;;8.37;2.23;;;;;;;;;;4982974;28;20194;-53
2023/12/23 05:40:16;;;;;;;6.80;2.07;;;;;;;;;;4979116;28;20220;-53
2023/12/23 05:42:57;;;;;;;8.67;1.90;;;;;;;;;;4981019;28;20484;-53
2023/12/23 05:45:31;;;;;;;4.73;1.80;;;;;;;;;;4984084;28;20281;-53
2023/12/23 05:48:01;;;;;;;7.80;1.90;;;;;;;;;;4984410;28;20529;-53
2023/12/23 05:50:45;;;;;;;7.93;1.90;;;;;;;;;;4981345;28;20491;-53
2023/12/23 05:53:41;;;;;;;6.60;1.80;;;;;;;;;;4979373;28;20441;-52
2023/12/23 05:56:08;;;;;;;5.20;1.70;;;;;;;;;;4973557;28;20457;-53
2023/12/23 05:58:56;;;;;;;6.33;1.90;;;;;;;;;;4984465;28;20517;-53
2023/12/23 06:01:30;;;;;;;3.83;1.80;;;;;;;;;;4970213;28;20213;-53
2023/12/23 06:04:23;;;;;;;7.03;2.37;;;;;;;;;;4982411;28;20457;-53
2023/12/23 06:06:52;;;;;;;4.93;1.80;;;;;;;;;;4977200;28;20445;-53
2023/12/23 06:09:39;;;;;;;7.43;1.77;;;;;;;;;;4978246;28;20203;-53
2023/12/23 06:12:23;;;;;;;4.90;1.83;;;;;;;;;;4984515;28;20202;-53
2023/12/23 06:15:36;;;;;;;4.83;1.70;;;;;;;;;;4982818;28;20592;-53
2023/12/23 06:17:45;;;;;;;2.97;1.67;;;;;;;;;;4982263;28;20445;-53
2023/12/23 06:20:25;;;;;;;4.00;1.57;;;;;;;;;;4980834;28;20499;-53
2023/12/23 06:26:21;;;;;;;2.47;1.40;;;;;;;;;;4980819;28;20460;-53
2023/12/23 06:29:04;;;;;;;3.03;1.50;;;;;;;;;;4980359;28;20477;-53
2023/12/23 06:31:30;;;;;;;4.10;1.63;;;;;;;;;;4980382;28;20437;-53
2023/12/23 06:34:07;;;;;;;2.33;1.60;;;;;;;;;;4979404;28;20455;-53
2023/12/23 06:36:41;;;;;;;4.67;1.70;;;;;;;;;;4979272;28;20481;-53
2023/12/23 06:39:10;;;;;;;3.80;1.60;;;;;;;;;;4984495;28;20464;-53
2023/12/23 06:41:54;;;;;;;2.73;1.50;;;;;;;;;;4985866;28;20241;-53
2023/12/23 06:44:21;;;;;;;5.70;1.53;;;;;;;;;;4984429;28;20437;-53
2023/12/23 06:47:02;;;;;;;2.63;1.30;;;;;;;;;;4982575;28;20433;-53
2023/12/23 06:49:37;;;;;;;2.63;1.40;;;;;;;;;;4983861;28;20543;-53
2023/12/23 06:52:07;;;;;;;2.63;1.20;;;;;;;;;;4982393;28;20456;-53
2023/12/23 06:54:54;;;;;;;3.87;1.77;;;;;;;;;;4983470;28;20896;-53
2023/12/23 06:57:25;;;;;;;2.43;1.20;;;;;;;;;;4976693;28;20965;-53
2023/12/23 07:00:10;;;;;;;3.57;1.37;;;;;;;;;;4980793;28;20430;-53
2023/12/23 07:02:43;;;;;;;2.97;1.50;;;;;;;;;;4982296;28;20237;-52
2023/12/23 07:05:14;;;;;;;3.63;1.47;;;;;;;;;;4983651;28;20442;-52
2023/12/23 07:07:46;;;;;;;3.30;1.40;;;;;;;;;;4983671;28;20981;-52
2023/12/23 07:10:18;;;;;;;3.80;1.40;;;;;;;;;;4982756;28;20620;-53
2023/12/23 07:12:44;;;;;;;3.27;1.37;;;;;;;;;;4982815;28;21045;-52
2023/12/23 07:15:11;;;;;;;3.10;1.40;;;;;;;;;;4983956;28;20469;-53
2023/12/23 07:17:58;;;;;;;2.43;1.30;;;;;;;;;;4983737;28;20445;-53
2023/12/23 07:20:25;;;;;;;4.10;1.50;;;;;;;;;;4983276;28;20448;-53
2023/12/23 07:22:58;;;;;;;1.53;1.30;;;;;;;;;;4983551;28;20468;-53
2023/12/23 07:25:24;;;;;;;2.63;1.33;;;;;;;;;;4983153;28;20437;-53
2023/12/23 07:28:09;;;;;;;2.97;1.43;;;;;;;;;;4983186;28;20461;-53
2023/12/23 07:30:44;;;;;;;2.30;1.30;;;;;;;;;;4982451;28;20449;-53
2023/12/23 07:33:10;;;;;;;2.93;1.20;;;;;;;;;;4982918;28;20441;-53
2023/12/23 07:35:38;;;;;;;1.23;1.13;;;;;;;;;;4984988;28;20444;-53
2023/12/23 07:38:05;;;;;;;3.57;1.27;;;;;;;;;;4982585;28;20258;-53
2023/12/23 07:40:32;;;;;;;3.20;1.80;;;;;;;;;;4988299;28;20491;-53
2023/12/23 07:42:58;;;;;;;1.80;1.30;;;;;;;;;;4983359;28;20484;-53
2023/12/23 07:45:28;;;;;;;3.20;1.30;;;;;;;;;;4981338;28;20430;-52
2023/12/23 07:47:59;;;;;;;2.07;1.00;;;;;;;;;;4982284;28;20794;-52
2023/12/23 07:50:27;;;;;;;1.73;1.33;;;;;;;;;;4984409;28;20438;-52
2023/12/23 07:52:55;;;;;;;2.23;1.10;;;;;;;;;;4977919;28;20449;-52
2023/12/23 07:55:24;;;;;;;2.27;1.07;;;;;;;;;;4984141;28;20441;-47
2023/12/23 07:58:48;;;;;;;;;;;;;;;;;;;;;
2023/12/23 08:01:01;;;;;;;1.43;1.20;;;;;;;;;;4978091;28;21201;-48
2023/12/23 08:03:44;;;;;;;1.47;1.30;;;;;;;;;;4984681;28;20481;-49
2023/12/23 08:06:10;;;;;;;1.10;1.00;;;;;;;;;;4984113;28;20445;-49
2023/12/23 08:08:54;;;;;;;2.97;1.23;;;;;;;;;;4982431;28;20300;-49
2023/12/23 08:11:44;;;;;;;1.80;1.33;;;;;;;;;;4966896;28;20453;-49
2023/12/23 08:14:37;;;;;;;2.03;1.27;;;;;;;;;;4979031;28;20814;-50
2023/12/23 08:17:06;;;;;;;1.00;0.93;;;;;;;;;;4983841;28;20495;-50
2023/12/23 08:20:02;;;;;;;1.83;1.40;;;;;;;;;;4980739;28;20989;-49
2023/12/23 08:22:37;;;;;;;1.93;1.20;;;;;;;;;;4982086;28;20242;-49
2023/12/23 08:25:13;;;;;;;1.83;1.23;;;;;;;;;;4983471;28;20433;-49
2023/12/23 08:27:49;;;;;;;1.57;1.07;;;;;;;;;;4991683;28;20453;-51
2023/12/23 08:30:46;;;;;;;1.47;1.20;;;;;;;;;;4991652;28;20484;-50
2023/12/23 08:33:34;;;;;;;2.90;1.20;;;;;;;;;;4991962;28;20190;-50
2023/12/23 08:36:33;;;;;;;1.33;1.23;;;;;;;;;;4988954;28;20285;-52
2023/12/23 08:39:00;;;;;;;2.67;1.27;;;;;;;;;;4970676;28;20988;-52
2023/12/23 08:41:36;;;;;;;1.50;1.33;;;;;;;;;;4987490;28;20209;-55
2023/12/23 08:44:14;;;;;;;1.67;1.10;;;;;;;;;;4992400;28;20429;-51
2023/12/23 08:46:41;;;;;;;2.60;1.20;;;;;;;;;;4992285;28;20483;-50
2023/12/23 08:52:45;;;;;;;1.27;1.00;;;;;;;;;;4990070;28;20205;-50
2023/12/23 08:55:29;;;;;;;1.43;0.90;;;;;;;;;;4992215;28;20198;-50
2023/12/23 09:01:04;;;;;;;1.50;0.93;;;;;;;;;;4979083;28;20442;-50
2023/12/23 09:03:31;;;;;;;1.30;1.20;;;;;;;;;;5008565;28;20475;-50
2023/12/23 09:05:57;;;;;;;1.10;1.10;;;;;;;;;;4995377;28;20860;-50
2023/12/23 09:08:27;;;;;;;1.90;1.40;;;;;;;;;;4988838;28;20202;-50
2023/12/23 09:10:52;;;;;;;1.17;1.10;;;;;;;;;;4998243;28;20566;-50
2023/12/23 09:13:18;;;;;;;1.13;1.03;;;;;;;;;;4988116;28;20212;-49
2023/12/23 09:15:44;;;;;;;2.37;1.30;;;;;;;;;;5008996;28;20205;-50
2023/12/23 09:18:12;;;;;;;1.00;1.00;;;;;;;;;;4997034;28;20216;-50
2023/12/23 09:20:38;;;;;;;1.30;1.20;;;;;;;;;;4985156;28;20210;-49
2023/12/23 09:23:04;;;;;;;2.67;1.50;;;;;;;;;;4992936;28;20881;-50
2023/12/23 09:25:30;;;;;;;1.50;1.40;;;;;;;;;;4997221;28;20214;-51
2023/12/23 09:27:56;;;;;;;3.37;2.43;;;;;;;;;;4999689;28;20198;-50
2023/12/23 09:30:22;;;;;;;1.63;1.53;;;;;;;;;;4998413;28;20275;-49
2023/12/23 09:32:48;;;;;;;2.07;1.70;;;;;;;;;;4984607;28;20277;-50
2023/12/23 09:35:15;;;;;;;2.90;2.70;;;;;;;;;;5001437;28;20259;-50
2023/12/23 09:37:41;;;;;;;5.60;5.10;;;;;;;;;;5001867;28;20214;-50
2023/12/23 09:40:08;;;;;;;1.93;1.23;;;;;;;;;;4993762;28;20198;-50
2023/12/23 09:42:34;;;;;;;10.87;9.57;;;;;;;;;;5008111;28;20339;-50
2023/12/23 09:45:00;;;;;;;1.60;1.50;;;;;;;;;;4994929;28;20440;-50
2023/12/23 09:47:26;;;;;;;11.47;9.70;;;;;;;;;;4988631;28;20206;-50
2023/12/23 09:49:52;;;;;;;2.63;2.43;;;;;;;;;;4982236;28;20213;-50
2023/12/23 09:52:20;;;;;;;3.83;3.53;;;;;;;;;;4987369;28;20585;-50
2023/12/23 09:54:48;;;;;;;2.00;1.70;;;;;;;;;;4992230;28;20559;-50
2023/12/23 09:57:14;;;;;;;1.70;1.60;;;;;;;;;;4979619;28;20205;-50
2023/12/23 09:59:40;;;;;;;3.30;3.00;;;;;;;;;;5001850;28;20867;-51
2023/12/23 10:02:09;;;;;;;2.20;1.60;;;;;;;;;;5004289;28;20478;-52
2023/12/23 10:04:38;;;;;;;1.27;1.20;;;;;;;;;;4992773;28;20205;-50
2023/12/23 10:07:04;;;;;;;1.40;1.30;;;;;;;;;;5003110;28;20224;-50
2023/12/23 10:09:33;;;;;;;1.40;1.30;;;;;;;;;;5007219;28;20514;-50
2023/12/23 10:12:01;;;;;;;1.40;1.30;;;;;;;;;;4991236;28;20211;-50
2023/12/23 10:14:27;;;;;;;1.47;1.37;;;;;;;;;;5016279;28;20999;-50
2023/12/23 10:16:53;;;;;;;1.90;1.30;;;;;;;;;;5011739;28;20205;-50
2023/12/23 10:19:20;;;;;;;2.70;2.50;;;;;;;;;;5031073;28;20643;-50
2023/12/23 10:21:46;;;;;;;1.50;1.40;;;;;;;;;;5008726;28;20227;-50
2023/12/23 10:24:12;;;;;;;1.50;1.40;;;;;;;;;;5007745;28;20285;-50
2023/12/23 10:26:41;;;;;;;2.20;2.10;;;;;;;;;;5006401;28;20312;-50
2023/12/23 10:29:09;;;;;;;1.43;1.20;;;;;;;;;;4992803;28;20667;-51
2023/12/23 10:31:36;;;;;;;1.53;1.30;;;;;;;;;;4984510;28;20717;-50
2023/12/23 10:34:07;;;;;;;2.60;2.40;;;;;;;;;;4995452;28;20229;-50
2023/12/23 10:36:33;;;;;;;2.07;1.87;;;;;;;;;;5007750;28;20237;-51
2023/12/23 10:39:01;;;;;;;2.20;1.80;;;;;;;;;;4990147;28;20206;-51
2023/12/23 10:41:31;;;;;;;1.80;1.60;;;;;;;;;;4998098;28;20291;-50
2023/12/23 10:44:02;;;;;;;2.57;2.37;;;;;;;;;;4995260;28;20248;-50
2023/12/23 10:46:29;;;;;;;2.83;2.37;;;;;;;;;;4985013;28;20672;-51
2023/12/23 10:48:56;;;;;;;2.00;1.80;;;;;;;;;;4995699;28;20202;-51
2023/12/23 10:51:22;;;;;;;6.30;5.77;;;;;;;;;;4996687;28;20531;-50
2023/12/23 10:53:49;;;;;;;5.40;3.93;;;;;;;;;;4998142;28;20652;-51
2023/12/23 10:56:16;;;;;;;1.80;1.70;;;;;;;;;;5006016;28;20185;-51
2023/12/23 10:58:42;;;;;;;1.70;1.60;;;;;;;;;;5011018;28;20205;-51
2023/12/23 11:01:13;;;;;;;15.70;14.20;;;;;;;;;;5010648;28;20527;-51
2023/12/23 11:03:46;;;;;;;4.10;3.80;;;;;;;;;;4987094;28;20491;-51
2023/12/23 11:06:13;;;;;;;2.00;1.90;;;;;;;;;;4989461;28;20202;-51
2023/12/23 11:08:39;;;;;;;2.40;2.20;;;;;;;;;;5004950;28;20293;-51
2023/12/23 11:11:06;;;;;;;2.47;1.90;;;;;;;;;;4992983;28;20209;-52
2023/12/23 11:13:32;;;;;;;4.13;3.83;;;;;;;;;;4987141;28;20237;-51
2023/12/23 11:16:00;;;;;;;2.40;2.20;;;;;;;;;;4999237;28;20225;-52
2023/12/23 11:18:28;;;;;;;1.90;1.80;;;;;;;;;;5005141;28;20611;-51
2023/12/23 11:20:54;;;;;;;7.13;6.60;;;;;;;;;;5006965;28;20959;-51
2023/12/23 11:23:30;;;;;;;2.27;2.07;;;;;;;;;;5006138;28;20241;-51
2023/12/23 11:25:56;;;;;;;3.07;2.57;;;;;;;;;;5006977;28;20328;-51
2023/12/23 11:28:22;;;;;;;2.37;2.17;;;;;;;;;;4995832;28;20194;-51
2023/12/23 11:30:49;;;;;;;6.20;5.60;;;;;;;;;;4993437;28;20205;-50
2023/12/23 11:33:18;;;;;;;8.47;7.17;;;;;;;;;;4997982;28;20197;-51
2023/12/23 11:35:47;;;;;;;10.63;8.67;;;;;;;;;;5003720;28;20686;-51
2023/12/23 11:40:49;;;;;;;6.33;4.87;;;;;;;;;;5768725;22;20293;-45
2023/12/23 11:43:16;;;;;;;7.33;6.63;;;;;;;;;;4991833;28;20493;-45
2023/12/23 11:45:45;;;;;;;3.57;3.00;;;;;;;;;;4993461;28;20213;-45
2023/12/23 11:48:11;;;;;;;2.60;2.40;;;;;;;;;;4993865;28;20207;-46
2023/12/23 11:50:37;;;;;;;3.27;2.50;;;;;;;;;;4993962;28;20195;-45
2023/12/23 11:53:05;;;;;;;2.60;2.40;;;;;;;;;;4993728;28;20272;-46
2023/12/23 11:55:31;;;;;;;2.43;2.23;;;;;;;;;;4993902;28;20209;-46
2023/12/23 11:57:58;;;;;;;2.90;2.70;;;;;;;;;;4993687;28;20617;-46
2023/12/23 12:00:24;;;;;;;2.87;2.67;;;;;;;;;;4993715;28;20202;-45
2023/12/23 12:02:50;;;;;;;2.93;2.60;;;;;;;;;;4993528;28;20495;-46
2023/12/23 12:05:16;;;;;;;2.70;2.50;;;;;;;;;;4993899;28;20958;-45
2023/12/23 12:07:42;;;;;;;3.00;2.80;;;;;;;;;;4993547;28;20198;-46
2023/12/23 12:10:09;;;;;;;3.30;3.00;;;;;;;;;;4993705;28;20533;-46
2023/12/23 12:12:35;;;;;;;3.00;2.70;;;;;;;;;;4993298;28;20452;-46
2023/12/23 12:15:02;;;;;;;2.83;2.63;;;;;;;;;;4989765;28;20811;-46
2023/12/23 12:17:28;;;;;;;3.07;2.80;;;;;;;;;;4993575;28;20198;-46
2023/12/23 12:19:54;;;;;;;3.00;2.80;;;;;;;;;;4992939;28;20289;-46
2023/12/23 12:22:21;;;;;;;2.77;2.57;;;;;;;;;;4993543;28;20288;-47
2023/12/23 12:24:47;;;;;;;6.33;5.73;;;;;;;;;;4993347;28;20444;-47
2023/12/23 12:27:15;;;;;;;3.13;2.43;;;;;;;;;;4993294;28;20433;-47
2023/12/23 12:29:41;;;;;;;7.00;6.30;;;;;;;;;;4993034;28;20454;-47
2023/12/23 12:32:12;;;;;;;3.00;2.70;;;;;;;;;;4993178;28;20305;-47
2023/12/23 12:34:38;;;;;;;1.80;1.70;;;;;;;;;;4992826;28;20213;-47
2023/12/23 12:37:04;;;;;;;2.10;1.90;;;;;;;;;;4993457;28;20232;-47
2023/12/23 12:39:30;;;;;;;2.10;2.00;;;;;;;;;;4994006;28;20222;-47
2023/12/23 12:41:56;;;;;;;1.70;1.60;;;;;;;;;;4992673;28;20242;-47
2023/12/23 12:44:24;;;;;;;1.80;1.70;;;;;;;;;;4993097;28;20408;-47
2023/12/23 12:46:54;;;;;;;1.90;1.80;;;;;;;;;;4993097;28;20285;-47
2023/12/23 12:49:22;;;;;;;2.07;1.80;;;;;;;;;;4992955;28;20260;-46
2023/12/23 12:51:48;;;;;;;1.40;1.30;;;;;;;;;;4992884;28;20480;-47
2023/12/23 12:54:15;;;;;;;1.50;1.40;;;;;;;;;;4993373;28;20607;-47
2023/12/23 12:56:41;;;;;;;1.77;1.67;;;;;;;;;;4993378;28;20210;-46
2023/12/23 12:59:07;;;;;;;1.70;1.60;;;;;;;;;;4992706;28;20660;-47
2023/12/23 13:01:35;;;;;;;1.73;1.60;;;;;;;;;;4992810;28;20198;-46
2023/12/23 13:04:01;;;;;;;1.70;1.60;;;;;;;;;;4992425;28;20254;-46
2023/12/23 13:06:26;;;;;;;1.50;1.40;;;;;;;;;;4993002;28;20627;-46
2023/12/23 13:08:52;;;;;;;1.60;1.50;;;;;;;;;;4992797;28;20232;-47
2023/12/23 13:11:19;;;;;;;1.60;1.50;;;;;;;;;;4993775;28;20656;-45
2023/12/23 13:13:44;;;;;;;1.80;1.70;;;;;;;;;;4993030;28;20197;-45
2023/12/23 13:16:13;;;;;;;1.70;1.60;;;;;;;;;;4992616;28;20638;-46
2023/12/23 13:18:43;;;;;;;1.77;1.67;;;;;;;;;;4992585;28;20656;-46
2023/12/23 13:21:09;;;;;;;2.23;2.03;;;;;;;;;;4992541;28;20214;-46
2023/12/23 13:23:35;;;;;;;1.90;1.80;;;;;;;;;;4992104;28;20230;-46
2023/12/23 13:26:01;;;;;;;1.83;1.73;;;;;;;;;;4992417;28;20214;-46
2023/12/23 13:28:27;;;;;;;2.03;1.93;;;;;;;;;;4988997;28;20245;-46
2023/12/23 13:30:53;;;;;;;2.40;2.20;;;;;;;;;;4991743;28;20204;-46
2023/12/23 13:33:19;;;;;;;3.13;2.77;;;;;;;;;;4992083;28;20198;-46
2023/12/23 13:35:48;;;;;;;2.80;2.60;;;;;;;;;;4992681;28;20597;-46
2023/12/23 13:38:14;;;;;;;3.53;3.23;;;;;;;;;;4992276;28;20226;-46
2023/12/23 13:40:40;;;;;;;2.67;2.47;;;;;;;;;;4992329;28;20249;-46
2023/12/23 13:43:06;;;;;;;3.13;2.90;;;;;;;;;;4986709;28;20328;-46
2023/12/23 13:45:32;;;;;;;3.40;3.10;;;;;;;;;;4983581;28;20230;-46
2023/12/23 13:47:58;;;;;;;3.50;3.20;;;;;;;;;;4986728;28;20535;-46
2023/12/23 13:50:24;;;;;;;3.30;3.00;;;;;;;;;;4989099;28;20229;-46
2023/12/23 13:52:52;;;;;;;2.73;2.50;;;;;;;;;;4988456;28;20244;-46
2023/12/23 13:55:19;;;;;;;2.83;2.47;;;;;;;;;;4984641;28;20206;-46
2023/12/23 13:57:45;;;;;;;2.50;2.30;;;;;;;;;;4993383;28;20202;-46
2023/12/23 14:00:12;;;;;;;2.50;2.30;;;;;;;;;;4990553;28;20288;-46
2023/12/23 14:02:38;;;;;;;2.60;2.40;;;;;;;;;;4987662;28;20691;-46
2023/12/23 14:05:04;;;;;;;2.90;2.50;;;;;;;;;;4981758;28;20232;-46
2023/12/23 14:07:30;;;;;;;1.80;1.70;;;;;;;;;;4990980;28;20198;-46
2023/12/23 14:09:57;;;;;;;2.10;2.00;;;;;;;;;;4989092;28;20277;-46
2023/12/23 14:12:23;;;;;;;2.00;1.90;;;;;;;;;;4987331;28;20207;-46
2023/12/23 14:14:50;;;;;;;1.83;1.73;;;;;;;;;;4985720;28;20232;-46
2023/12/23 14:17:16;;;;;;;2.00;1.90;;;;;;;;;;4987349;28;20662;-46
2023/12/23 14:19:42;;;;;;;2.00;1.90;;;;;;;;;;4985470;28;20448;-47
2023/12/23 14:22:08;;;;;;;1.77;1.67;;;;;;;;;;4986327;28;20667;-50
2023/12/23 14:24:35;;;;;;;2.07;1.97;;;;;;;;;;4988622;28;20206;-47
2023/12/23 14:27:04;;;;;;;3.07;2.87;;;;;;;;;;4988220;28;20202;-47
2023/12/23 14:29:30;;;;;;;2.43;2.23;;;;;;;;;;4986863;28;20289;-47
2023/12/23 14:31:56;;;;;;;2.17;1.97;;;;;;;;;;4986730;28;20226;-48
2023/12/23 14:34:22;;;;;;;10.80;9.20;;;;;;;;;;4987935;28;20202;-48
2023/12/23 14:36:48;;;;;;;2.00;1.90;;;;;;;;;;4989412;28;20210;-48
2023/12/23 14:39:14;;;;;;;10.67;8.43;;;;;;;;;;4986540;28;20346;-48
2023/12/23 14:41:40;;;;;;;2.67;2.47;;;;;;;;;;4986615;28;20269;-48
2023/12/23 14:44:10;;;;;;;2.13;2.03;;;;;;;;;;4989641;28;20226;-48
2023/12/23 14:46:37;;;;;;;2.20;2.10;;;;;;;;;;4986333;28;20289;-48
2023/12/23 14:49:03;;;;;;;1.97;1.70;;;;;;;;;;4987523;28;21145;-48
2023/12/23 14:51:29;;;;;;;2.07;1.97;;;;;;;;;;4982981;28;20212;-48
2023/12/23 14:53:56;;;;;;;2.77;1.77;;;;;;;;;;4980342;28;20287;-48
2023/12/23 14:56:22;;;;;;;1.80;1.70;;;;;;;;;;4982048;28;20734;-48
2023/12/23 14:58:48;;;;;;;2.70;2.50;;;;;;;;;;4985490;28;20194;-47
2023/12/23 15:01:15;;;;;;;2.30;2.10;;;;;;;;;;4987476;28;20669;-47
2023/12/23 15:03:41;;;;;;;3.90;3.20;;;;;;;;;;4989770;28;20317;-48
2023/12/23 15:06:08;;;;;;;3.30;3.00;;;;;;;;;;4986120;28;20293;-47
2023/12/23 15:08:34;;;;;;;3.20;2.80;;;;;;;;;;4990110;28;20212;-52
2023/12/23 15:11:03;;;;;;;1.90;1.80;;;;;;;;;;4989715;28;20210;-48
2023/12/23 15:13:35;;;;;;;1.70;1.60;;;;;;;;;;4987509;28;20209;-48
2023/12/23 15:16:01;;;;;;;1.80;1.70;;;;;;;;;;4985589;28;20582;-48
2023/12/23 15:18:28;;;;;;;3.10;2.80;;;;;;;;;;4990092;28;20437;-48
2023/12/23 15:20:54;;;;;;;2.03;1.93;;;;;;;;;;4987718;28;20213;-48
2023/12/23 15:23:20;;;;;;;2.27;2.17;;;;;;;;;;4987463;28;20229;-48
2023/12/23 15:25:46;;;;;;;2.23;2.03;;;;;;;;;;4985918;28;20234;-48
2023/12/23 15:28:12;;;;;;;2.90;2.40;;;;;;;;;;4984341;28;20663;-48
2023/12/23 15:30:38;;;;;;;2.50;2.30;;;;;;;;;;4989632;28;20214;-48
2023/12/23 15:33:04;;;;;;;10.50;9.50;;;;;;;;;;4986338;28;20245;-48
2023/12/23 15:35:31;;;;;;;2.50;2.30;;;;;;;;;;4987846;28;20260;-48
2023/12/23 15:37:57;;;;;;;2.90;2.70;;;;;;;;;;4985511;28;20206;-48
2023/12/23 15:40:23;;;;;;;3.30;3.00;;;;;;;;;;4984997;28;20213;-48
2023/12/23 15:42:49;;;;;;;3.53;3.23;;;;;;;;;;4983479;28;20269;-48
2023/12/23 15:45:15;;;;;;;2.70;2.50;;;;;;;;;;4988583;28;20481;-46
2023/12/23 15:47:41;;;;;;;3.47;3.17;;;;;;;;;;4985233;28;20205;-47
2023/12/23 15:50:08;;;;;;;3.87;3.57;;;;;;;;;;4983250;28;20614;-47
2023/12/23 15:52:35;;;;;;;4.30;3.90;;;;;;;;;;4985390;28;20198;-48
2023/12/23 15:55:02;;;;;;;4.07;3.67;;;;;;;;;;4991378;28;20433;-48
2023/12/23 15:57:28;;;;;;;5.20;4.70;;;;;;;;;;4988621;28;20206;-47
2023/12/23 15:59:54;;;;;;;20.67;12.83;;;;;;;;;;4983308;28;20253;-48
2023/12/23 16:02:20;;;;;;;31.87;19.03;;;;;;;;;;4989716;28;20230;-48
2023/12/23 16:04:46;;;;;;;5.40;4.90;;;;;;;;;;4991819;28;20210;-48
2023/12/23 16:07:12;;;;;;;4.90;4.50;;;;;;;;;;4989958;28;20664;-48
2023/12/23 16:09:39;;;;;;;22.53;13.97;;;;;;;;;;4985755;28;20199;-48
2023/12/23 16:12:06;;;;;;;6.23;5.63;;;;;;;;;;4984326;28;20206;-48
2023/12/23 16:14:32;;;;;;;4.33;4.03;;;;;;;;;;4986543;28;20202;-48
2023/12/23 16:16:58;;;;;;;5.13;4.70;;;;;;;;;;4990074;28;20294;-48
2023/12/23 16:19:24;;;;;;;6.10;5.60;;;;;;;;;;4986493;28;20735;-48
2023/12/23 16:21:51;;;;;;;6.90;6.20;;;;;;;;;;4984532;28;20513;-48
2023/12/23 16:24:17;;;;;;;6.77;6.10;;;;;;;;;;4989991;28;20241;-47
2023/12/23 16:26:45;;;;;;;8.37;7.33;;;;;;;;;;4985948;28;20692;-48
2023/12/23 16:29:11;;;;;;;7.47;6.63;;;;;;;;;;4984294;28;20217;-48
2023/12/23 16:31:37;;;;;;;8.13;6.63;;;;;;;;;;4991366;28;20285;-48
2023/12/23 16:34:03;;;;;;;8.87;6.87;;;;;;;;;;4985429;28;20289;-47
2023/12/23 16:36:29;;;;;;;5.97;5.37;;;;;;;;;;4986408;28;20202;-47